sensor_id;sensor_type;location;lat;lon;timestamp;pressure;altitude;pressure_sealevel;temperature;humidity
68456;BME280;55437;55.046;38.838;2022-09-09T00:02:01;100579.31;;;8.11;70.28
68456;BME280;55437;55.046;38.838;2022-09-09T00:04:35;100586.22;;;8.08;70.51
68456;BME280;55437;55.046;38.838;2022-09-09T00:12:50;100600.09;;;7.78;70.89
68456;BME280;55437;55.046;38.838;2022-09-09T00:15:21;100595.09;;;7.64;71.08
68456;BME280;55437;55.046;38.838;2022-09-09T00:18:11;100599.34;;;7.67;71.37
68456;BME280;55437;55.046;38.838;2022-09-09T00:20:55;100599.34;;;7.65;71.45
68456;BME280;55437;55.046;38.838;2022-09-09T00:23:37;100602.75;;;7.67;71.33
68456;BME280;55437;55.046;38.838;2022-09-09T00:29:05;100606.13;;;7.72;70.83
68456;BME280;55437;55.046;38.838;2022-09-09T00:31:35;100605.25;;;7.73;70.98
68456;BME280;55437;55.046;38.838;2022-09-09T00:34:19;100601.78;;;7.80;71.02
68456;BME280;55437;55.046;38.838;2022-09-09T00:36:49;100610.31;;;7.79;70.95
68456;BME280;55437;55.046;38.838;2022-09-09T00:39:39;100602.72;;;7.70;71.10
68456;BME280;55437;55.046;38.838;2022-09-09T00:42:20;100617.19;;;7.73;71.26
68456;BME280;55437;55.046;38.838;2022-09-09T00:44:58;100609.50;;;7.74;71.31
68456;BME280;55437;55.046;38.838;2022-09-09T00:57:59;100625.56;;;7.93;71.39
68456;BME280;55437;55.046;38.838;2022-09-09T01:00:31;100632.28;;;8.00;71.40
68456;BME280;55437;55.046;38.838;2022-09-09T01:08:01;100636.56;;;7.98;71.26
68456;BME280;55437;55.046;38.838;2022-09-09T01:11:01;100635.72;;;7.99;71.05
68456;BME280;55437;55.046;38.838;2022-09-09T01:13:28;100636.53;;;8.06;70.86
68456;BME280;55437;55.046;38.838;2022-09-09T01:15:59;100640.78;;;8.07;70.88
68456;BME280;55437;55.046;38.838;2022-09-09T01:18:29;100645.91;;;8.05;70.99
68456;BME280;55437;55.046;38.838;2022-09-09T01:26:18;100656.16;;;7.97;71.02
68456;BME280;55437;55.046;38.838;2022-09-09T01:28:47;100653.66;;;7.94;70.84
68456;BME280;55437;55.046;38.838;2022-09-09T01:31:21;100656.25;;;7.90;71.00
68456;BME280;55437;55.046;38.838;2022-09-09T01:33:49;100664.78;;;7.86;71.11
68456;BME280;55437;55.046;38.838;2022-09-09T01:38:48;100661.34;;;7.94;71.05
68456;BME280;55437;55.046;38.838;2022-09-09T01:41:15;100668.06;;;8.03;70.91
68456;BME280;55437;55.046;38.838;2022-09-09T01:43:58;100662.13;;;8.01;70.88
68456;BME280;55437;55.046;38.838;2022-09-09T01:46:25;100660.44;;;7.97;71.04
68456;BME280;55437;55.046;38.838;2022-09-09T01:48:52;100667.25;;;7.98;70.74
68456;BME280;55437;55.046;38.838;2022-09-09T01:51:19;100670.63;;;8.02;70.95
68456;BME280;55437;55.046;38.838;2022-09-09T01:53:46;100672.31;;;8.07;71.02
68456;BME280;55437;55.046;38.838;2022-09-09T02:04:41;100679.13;;;8.07;70.81
68456;BME280;55437;55.046;38.838;2022-09-09T02:07:17;100679.94;;;8.12;70.59
68456;BME280;55437;55.046;38.838;2022-09-09T02:09:50;100686.81;;;8.08;70.98
68456;BME280;55437;55.046;38.838;2022-09-09T02:12:20;100688.53;;;8.06;71.02
68456;BME280;55437;55.046;38.838;2022-09-09T02:14:56;100680.84;;;8.05;70.80
68456;BME280;55437;55.046;38.838;2022-09-09T02:17:34;100689.28;;;8.16;70.73
68456;BME280;55437;55.046;38.838;2022-09-09T02:20:10;100683.31;;;8.14;70.94
68456;BME280;55437;55.046;38.838;2022-09-09T02:22:58;100690.91;;;8.23;70.50
68456;BME280;55437;55.046;38.838;2022-09-09T02:25:28;100691.78;;;8.22;70.76
68456;BME280;55437;55.046;38.838;2022-09-09T02:28:07;100690.06;;;8.22;70.46
68456;BME280;55437;55.046;38.838;2022-09-09T02:30:37;100690.91;;;8.23;70.63
68456;BME280;55437;55.046;38.838;2022-09-09T02:33:05;100695.16;;;8.25;70.49
68456;BME280;55437;55.046;38.838;2022-09-09T02:35:50;100692.63;;;8.22;70.66
68456;BME280;55437;55.046;38.838;2022-09-09T02:38:21;100696.09;;;8.20;70.50
68456;BME280;55437;55.046;38.838;2022-09-09T02:40:57;100693.56;;;8.15;70.90
68456;BME280;55437;55.046;38.838;2022-09-09T02:43:24;100702.06;;;8.17;70.62
68456;BME280;55437;55.046;38.838;2022-09-09T02:48:52;100698.75;;;8.05;70.85
68456;BME280;55437;55.046;38.838;2022-09-09T02:56:40;100707.22;;;8.10;70.63
68456;BME280;55437;55.046;38.838;2022-09-09T02:59:09;100712.34;;;8.10;70.97
68456;BME280;55437;55.046;38.838;2022-09-09T03:01:36;100711.50;;;8.09;70.93
68456;BME280;55437;55.046;38.838;2022-09-09T03:04:03;100717.44;;;8.13;70.73
68456;BME280;55437;55.046;38.838;2022-09-09T03:06:30;100723.41;;;8.12;71.03
68456;BME280;55437;55.046;38.838;2022-09-09T03:09:05;100720.88;;;8.10;70.69
68456;BME280;55437;55.046;38.838;2022-09-09T03:11:31;100722.66;;;8.01;71.04
68456;BME280;55437;55.046;38.838;2022-09-09T03:13:57;100726.06;;;7.98;70.76
68456;BME280;55437;55.046;38.838;2022-09-09T03:16:24;100725.25;;;7.94;71.23
68456;BME280;55437;55.046;38.838;2022-09-09T03:18:52;100722.72;;;7.91;70.90
68456;BME280;55437;55.046;38.838;2022-09-09T03:21:19;100733.78;;;7.97;70.96
68456;BME280;55437;55.046;38.838;2022-09-09T03:23:45;100738.00;;;8.01;70.82
68456;BME280;55437;55.046;38.838;2022-09-09T03:26:11;100732.00;;;8.06;70.81
68456;BME280;55437;55.046;38.838;2022-09-09T03:28:42;100735.41;;;8.04;70.67
68456;BME280;55437;55.046;38.838;2022-09-09T03:31:10;100741.41;;;8.01;70.60
68456;BME280;55437;55.046;38.838;2022-09-09T03:33:39;100736.25;;;8.07;70.73
68456;BME280;55437;55.046;38.838;2022-09-09T03:36:07;100737.91;;;8.14;70.68
68456;BME280;55437;55.046;38.838;2022-09-09T03:38:34;100743.94;;;8.07;70.55
68456;BME280;55437;55.046;38.838;2022-09-09T03:41:00;100753.25;;;8.10;70.70
68456;BME280;55437;55.046;38.838;2022-09-09T03:43:28;100756.66;;;8.10;70.46
68456;BME280;55437;55.046;38.838;2022-09-09T03:45:55;100766.91;;;8.10;70.31
68456;BME280;55437;55.046;38.838;2022-09-09T03:48:25;100766.88;;;8.13;70.39
68456;BME280;55437;55.046;38.838;2022-09-09T03:50:53;100757.50;;;8.15;70.08
68456;BME280;55437;55.046;38.838;2022-09-09T03:53:21;100761.69;;;8.27;70.18
68456;BME280;55437;55.046;38.838;2022-09-09T03:55:50;100761.63;;;8.36;69.89
68456;BME280;55437;55.046;38.838;2022-09-09T03:58:18;100765.03;;;8.38;69.67
68456;BME280;55437;55.046;38.838;2022-09-09T04:00:59;100774.44;;;8.35;69.71
68456;BME280;55437;55.046;38.838;2022-09-09T04:03:27;100773.53;;;8.42;69.54
68456;BME280;55437;55.046;38.838;2022-09-09T04:05:53;100774.41;;;8.41;69.48
68456;BME280;55437;55.046;38.838;2022-09-09T04:08:21;100775.22;;;8.44;69.17
68456;BME280;55437;55.046;38.838;2022-09-09T04:10:49;100779.44;;;8.48;68.96
68456;BME280;55437;55.046;38.838;2022-09-09T04:13:17;100779.50;;;8.42;69.10
68456;BME280;55437;55.046;38.838;2022-09-09T04:15:50;100779.41;;;8.53;68.89
68456;BME280;55437;55.046;38.838;2022-09-09T04:18:16;100787.00;;;8.62;68.96
68456;BME280;55437;55.046;38.838;2022-09-09T04:20:42;100784.41;;;8.66;68.58
68456;BME280;55437;55.046;38.838;2022-09-09T04:23:09;100791.06;;;8.84;68.44
68456;BME280;55437;55.046;38.838;2022-09-09T04:25:34;100793.50;;;8.98;67.73
68456;BME280;55437;55.046;38.838;2022-09-09T04:28:00;100791.78;;;8.97;67.59
68456;BME280;55437;55.046;38.838;2022-09-09T04:30:27;100794.19;;;9.12;67.18
68456;BME280;55437;55.046;38.838;2022-09-09T04:32:53;100798.31;;;9.28;67.11
68456;BME280;55437;55.046;38.838;2022-09-09T04:35:20;100795.44;;;9.53;66.51
68456;BME280;55437;55.046;38.838;2022-09-09T04:37:46;100792.75;;;9.63;66.23
68456;BME280;55437;55.046;38.838;2022-09-09T04:40:14;100794.34;;;9.72;65.79
68456;BME280;55437;55.046;38.838;2022-09-09T04:42:41;100793.59;;;9.65;65.70
68456;BME280;55437;55.046;38.838;2022-09-09T04:45:11;100795.22;;;9.69;65.28
68456;BME280;55437;55.046;38.838;2022-09-09T04:47:37;100795.91;;;9.81;65.22
68456;BME280;55437;55.046;38.838;2022-09-09T04:50:02;100804.44;;;9.84;65.21
68456;BME280;55437;55.046;38.838;2022-09-09T04:52:28;100808.72;;;9.82;64.79
68456;BME280;55437;55.046;38.838;2022-09-09T04:54:55;100799.16;;;9.93;64.69
68456;BME280;55437;55.046;38.838;2022-09-09T04:57:20;100796.59;;;9.95;64.66
68456;BME280;55437;55.046;38.838;2022-09-09T04:59:46;100804.22;;;9.99;64.38
68456;BME280;55437;55.046;38.838;2022-09-09T05:02:13;100805.78;;;10.09;63.98
68456;BME280;55437;55.046;38.838;2022-09-09T05:04:39;100816.09;;;10.05;64.38
68456;BME280;55437;55.046;38.838;2022-09-09T05:07:06;100819.56;;;10.02;64.26
68456;BME280;55437;55.046;38.838;2022-09-09T05:09:32;100818.00;;;9.92;64.15
68456;BME280;55437;55.046;38.838;2022-09-09T05:11:58;100818.13;;;9.83;64.24
68456;BME280;55437;55.046;38.838;2022-09-09T05:14:30;100817.00;;;10.02;64.26
68456;BME280;55437;55.046;38.838;2022-09-09T05:16:59;100820.22;;;10.18;63.95
68456;BME280;55437;55.046;38.838;2022-09-09T05:19:24;100812.78;;;10.57;63.20
68456;BME280;55437;55.046;38.838;2022-09-09T05:21:52;100827.72;;;10.86;62.25
68456;BME280;55437;55.046;38.838;2022-09-09T05:24:22;100823.06;;;11.50;61.64
68456;BME280;55437;55.046;38.838;2022-09-09T05:26:53;100834.00;;;12.03;60.39
68456;BME280;55437;55.046;38.838;2022-09-09T05:29:19;100827.78;;;12.49;59.20
68456;BME280;55437;55.046;38.838;2022-09-09T05:31:45;100827.63;;;13.23;57.65
68456;BME280;55437;55.046;38.838;2022-09-09T05:34:14;100829.13;;;13.90;56.05
68456;BME280;55437;55.046;38.838;2022-09-09T05:36:40;100835.78;;;14.55;54.50
68456;BME280;55437;55.046;38.838;2022-09-09T05:39:06;100832.34;;;15.05;52.52
68456;BME280;55437;55.046;38.838;2022-09-09T05:41:33;100833.13;;;15.80;51.20
68456;BME280;55437;55.046;38.838;2022-09-09T05:44:01;100831.28;;;16.49;49.72
68456;BME280;55437;55.046;38.838;2022-09-09T05:46:27;100836.66;;;17.07;48.56
68456;BME280;55437;55.046;38.838;2022-09-09T05:48:54;100839.03;;;17.32;47.03
68456;BME280;55437;55.046;38.838;2022-09-09T05:51:31;100847.25;;;17.62;46.18
68456;BME280;55437;55.046;38.838;2022-09-09T05:54:02;100847.81;;;18.06;45.09
68456;BME280;55437;55.046;38.838;2022-09-09T05:56:31;100848.66;;;18.07;43.95
68456;BME280;55437;55.046;38.838;2022-09-09T05:58:58;100841.47;;;18.12;42.88
68456;BME280;55437;55.046;38.838;2022-09-09T06:01:29;100844.84;;;18.14;42.04
68456;BME280;55437;55.046;38.838;2022-09-09T06:03:57;100844.47;;;18.59;41.32
68456;BME280;55437;55.046;38.838;2022-09-09T06:06:25;100840.53;;;18.85;40.66
68456;BME280;55437;55.046;38.838;2022-09-09T06:08:55;100853.56;;;18.85;39.45
68456;BME280;55437;55.046;38.838;2022-09-09T06:11:28;100855.38;;;18.65;39.05
68456;BME280;55437;55.046;38.838;2022-09-09T06:13:57;100857.06;;;18.30;39.12
68456;BME280;55437;55.046;38.838;2022-09-09T06:16:25;100852.06;;;18.26;39.33
68456;BME280;55437;55.046;38.838;2022-09-09T06:18:53;100859.44;;;18.88;38.50
68456;BME280;55437;55.046;38.838;2022-09-09T06:21:24;100850.59;;;18.92;37.89
68456;BME280;55437;55.046;38.838;2022-09-09T06:23:50;100862.09;;;19.21;37.42
68456;BME280;55437;55.046;38.838;2022-09-09T06:26:24;100859.91;;;19.64;36.71
68456;BME280;55437;55.046;38.838;2022-09-09T06:28:53;100862.66;;;19.61;36.52
68456;BME280;55437;55.046;38.838;2022-09-09T06:31:22;100864.78;;;19.70;36.00
68456;BME280;55437;55.046;38.838;2022-09-09T06:33:50;100866.91;;;19.79;35.60
68456;BME280;55437;55.046;38.838;2022-09-09T06:36:22;100873.44;;;19.55;35.03
68456;BME280;55437;55.046;38.838;2022-09-09T06:38:49;100871.44;;;19.42;34.52
68456;BME280;55437;55.046;38.838;2022-09-09T06:41:16;100871.16;;;19.31;34.72
68456;BME280;55437;55.046;38.838;2022-09-09T06:43:45;100867.44;;;19.35;34.74
68456;BME280;55437;55.046;38.838;2022-09-09T06:46:16;100872.00;;;19.48;34.32
68456;BME280;55437;55.046;38.838;2022-09-09T06:48:44;100878.50;;;19.23;34.73
68456;BME280;55437;55.046;38.838;2022-09-09T06:51:19;100871.38;;;18.75;34.75
68456;BME280;55437;55.046;38.838;2022-09-09T06:53:49;100876.97;;;18.85;34.81
68456;BME280;55437;55.046;38.838;2022-09-09T06:58:45;100879.34;;;18.89;34.23
68456;BME280;55437;55.046;38.838;2022-09-09T07:01:23;100889.13;;;17.93;34.75
68456;BME280;55437;55.046;38.838;2022-09-09T07:03:51;100888.56;;;18.60;34.40
68456;BME280;55437;55.046;38.838;2022-09-09T07:06:19;100898.38;;;18.18;33.93
68456;BME280;55437;55.046;38.838;2022-09-09T07:09:09;100900.34;;;17.55;34.21
68456;BME280;55437;55.046;38.838;2022-09-09T07:11:40;100900.41;;;16.27;35.80
68456;BME280;55437;55.046;38.838;2022-09-09T07:14:10;100899.91;;;15.46;37.00
68456;BME280;55437;55.046;38.838;2022-09-09T07:16:38;100894.88;;;14.92;37.89
68456;BME280;55437;55.046;38.838;2022-09-09T07:19:04;100891.38;;;14.68;38.26
68456;BME280;55437;55.046;38.838;2022-09-09T07:21:31;100898.56;;;14.58;38.74
68456;BME280;55437;55.046;38.838;2022-09-09T07:23:57;100890.31;;;14.47;39.42
68456;BME280;55437;55.046;38.838;2022-09-09T07:26:26;100899.69;;;14.50;39.23
68456;BME280;55437;55.046;38.838;2022-09-09T07:28:53;100893.06;;;14.69;39.21
68456;BME280;55437;55.046;38.838;2022-09-09T07:31:23;100904.00;;;14.77;39.20
68456;BME280;55437;55.046;38.838;2022-09-09T07:33:50;100900.91;;;14.66;38.98
68456;BME280;55437;55.046;38.838;2022-09-09T07:36:24;100907.13;;;14.31;38.97
68456;BME280;55437;55.046;38.838;2022-09-09T07:38:54;100915.09;;;13.94;39.38
68456;BME280;55437;55.046;38.838;2022-09-09T07:41:23;100913.84;;;13.78;40.11
68456;BME280;55437;55.046;38.838;2022-09-09T07:43:51;100924.16;;;13.78;40.15
68456;BME280;55437;55.046;38.838;2022-09-09T07:46:22;100917.97;;;13.85;39.97
68456;BME280;55437;55.046;38.838;2022-09-09T07:48:57;100919.19;;;14.01;39.73
68456;BME280;55437;55.046;38.838;2022-09-09T07:51:35;100923.28;;;14.10;39.56
68456;BME280;55437;55.046;38.838;2022-09-09T07:54:05;100938.34;;;14.25;39.22
68456;BME280;55437;55.046;38.838;2022-09-09T07:56:33;100927.16;;;14.24;38.58
68456;BME280;55437;55.046;38.838;2022-09-09T07:58:59;100929.97;;;14.15;38.35
68456;BME280;55437;55.046;38.838;2022-09-09T08:01:29;100916.47;;;15.17;37.34
68456;BME280;55437;55.046;38.838;2022-09-09T08:04:02;100922.78;;;16.30;36.57
68456;BME280;55437;55.046;38.838;2022-09-09T08:06:32;100929.97;;;17.10;35.38
68456;BME280;55437;55.046;38.838;2022-09-09T08:09:01;100923.94;;;17.50;34.19
68456;BME280;55437;55.046;38.838;2022-09-09T08:11:29;100927.69;;;17.43;33.85
68456;BME280;55437;55.046;38.838;2022-09-09T08:13:56;100928.66;;;17.41;33.82
68456;BME280;55437;55.046;38.838;2022-09-09T08:16:24;100925.16;;;18.01;33.33
68456;BME280;55437;55.046;38.838;2022-09-09T08:18:51;100931.41;;;18.34;32.68
68456;BME280;55437;55.046;38.838;2022-09-09T08:21:23;100935.34;;;18.43;32.24
68456;BME280;55437;55.046;38.838;2022-09-09T08:23:51;100946.19;;;17.76;32.70
68456;BME280;55437;55.046;38.838;2022-09-09T08:26:21;100945.41;;;17.13;33.23
68456;BME280;55437;55.046;38.838;2022-09-09T08:28:49;100949.75;;;16.47;33.00
68456;BME280;55437;55.046;38.838;2022-09-09T08:31:19;100932.09;;;16.12;33.82
68456;BME280;55437;55.046;38.838;2022-09-09T08:33:47;100927.50;;;16.18;34.08
68456;BME280;55437;55.046;38.838;2022-09-09T08:36:18;100931.34;;;16.08;34.63
68456;BME280;55437;55.046;38.838;2022-09-09T08:38:47;100934.34;;;15.74;35.22
68456;BME280;55437;55.046;38.838;2022-09-09T08:43:46;100931.81;;;14.97;35.83
68456;BME280;55437;55.046;38.838;2022-09-09T08:46:22;100948.75;;;14.79;36.46
68456;BME280;55437;55.046;38.838;2022-09-09T08:49:23;100927.50;;;14.69;36.83
68456;BME280;55437;55.046;38.838;2022-09-09T08:51:57;100927.41;;;14.72;37.23
68456;BME280;55437;55.046;38.838;2022-09-09T08:54:33;100935.13;;;15.00;37.46
68456;BME280;55437;55.046;38.838;2022-09-09T08:57:02;100936.41;;;14.87;37.28
68456;BME280;55437;55.046;38.838;2022-09-09T08:59:31;100937.78;;;14.97;37.66
68456;BME280;55437;55.046;38.838;2022-09-09T09:04:58;100940.47;;;14.40;38.04
68456;BME280;55437;55.046;38.838;2022-09-09T09:08:08;100944.66;;;14.44;38.02
68456;BME280;55437;55.046;38.838;2022-09-09T09:16:14;100933.28;;;15.04;37.89
68456;BME280;55437;55.046;38.838;2022-09-09T09:18:43;100934.28;;;15.00;38.71
68456;BME280;55437;55.046;38.838;2022-09-09T09:21:16;100939.03;;;14.86;39.42
68456;BME280;55437;55.046;38.838;2022-09-09T09:23:58;100944.84;;;14.66;39.65
68456;BME280;55437;55.046;38.838;2022-09-09T09:26:35;100938.75;;;14.68;39.84
68456;BME280;55437;55.046;38.838;2022-09-09T09:29:13;100942.19;;;14.69;39.68
68456;BME280;55437;55.046;38.838;2022-09-09T09:32:07;100952.09;;;14.55;39.89
68456;BME280;55437;55.046;38.838;2022-09-09T09:34:38;100951.31;;;14.51;40.07
68456;BME280;55437;55.046;38.838;2022-09-09T09:37:16;100947.00;;;14.52;39.92
68456;BME280;55437;55.046;38.838;2022-09-09T09:39:45;100935.06;;;14.75;39.49
68456;BME280;55437;55.046;38.838;2022-09-09T09:42:12;100942.69;;;15.06;38.75
68456;BME280;55437;55.046;38.838;2022-09-09T09:44:41;100951.94;;;15.13;38.21
68456;BME280;55437;55.046;38.838;2022-09-09T09:47:16;100945.78;;;15.18;37.77
68456;BME280;55437;55.046;38.838;2022-09-09T09:49:57;100942.88;;;15.27;37.44
68456;BME280;55437;55.046;38.838;2022-09-09T09:52:28;100937.50;;;15.06;37.44
68456;BME280;55437;55.046;38.838;2022-09-09T09:54:56;100945.78;;;15.18;36.86
68456;BME280;55437;55.046;38.838;2022-09-09T09:57:29;100938.25;;;15.35;36.73
68456;BME280;55437;55.046;38.838;2022-09-09T10:00:18;100937.25;;;15.65;36.76
68456;BME280;55437;55.046;38.838;2022-09-09T10:02:52;100947.59;;;15.40;37.10
68456;BME280;55437;55.046;38.838;2022-09-09T10:05:24;100943.22;;;14.90;37.13
68456;BME280;55437;55.046;38.838;2022-09-09T10:18:52;100946.94;;;15.09;37.39
68456;BME280;55437;55.046;38.838;2022-09-09T10:24:42;100955.97;;;14.96;37.93
68456;BME280;55437;55.046;38.838;2022-09-09T10:32:24;100954.72;;;14.53;38.78
68456;BME280;55437;55.046;38.838;2022-09-09T10:35:24;100958.72;;;14.34;39.02
68456;BME280;55437;55.046;38.838;2022-09-09T10:43:10;100962.97;;;14.64;38.37
68456;BME280;55437;55.046;38.838;2022-09-09T10:54:56;100968.88;;;14.11;38.09
68456;BME280;55437;55.046;38.838;2022-09-09T10:57:46;100967.66;;;14.22;38.08
68456;BME280;55437;55.046;38.838;2022-09-09T11:00:20;100962.88;;;14.39;37.30
68456;BME280;55437;55.046;38.838;2022-09-09T11:03:05;100957.69;;;14.69;36.70
68456;BME280;55437;55.046;38.838;2022-09-09T11:05:44;100956.38;;;14.84;36.23
68456;BME280;55437;55.046;38.838;2022-09-09T11:08:21;100950.13;;;14.89;36.67
68456;BME280;55437;55.046;38.838;2022-09-09T11:11:09;100956.53;;;14.77;36.93
68456;BME280;55437;55.046;38.838;2022-09-09T11:13:53;100961.34;;;14.62;37.41
68456;BME280;55437;55.046;38.838;2022-09-09T11:16:33;100962.31;;;14.28;37.26
68456;BME280;55437;55.046;38.838;2022-09-09T11:22:32;100959.25;;;14.16;36.96
68456;BME280;55437;55.046;38.838;2022-09-09T11:25:20;100960.13;;;14.15;37.15
68456;BME280;55437;55.046;38.838;2022-09-09T11:28:21;100963.16;;;14.29;36.56
68456;BME280;55437;55.046;38.838;2022-09-09T11:31:50;100955.22;;;14.64;36.38
68456;BME280;55437;55.046;38.838;2022-09-09T11:39:41;100970.47;;;14.46;38.42
68456;BME280;55437;55.046;38.838;2022-09-09T11:44:37;100963.25;;;14.26;38.93
68456;BME280;55437;55.046;38.838;2022-09-09T11:47:03;100965.25;;;14.16;38.75
68456;BME280;55437;55.046;38.838;2022-09-09T11:52:11;100967.88;;;14.15;38.49
68456;BME280;55437;55.046;38.838;2022-09-09T11:54:47;100955.69;;;14.20;37.85
68456;BME280;55437;55.046;38.838;2022-09-09T11:57:34;100957.16;;;14.28;37.13
68456;BME280;55437;55.046;38.838;2022-09-09T12:00:02;100948.09;;;14.45;37.10
68456;BME280;55437;55.046;38.838;2022-09-09T12:02:48;100946.75;;;14.61;36.92
68456;BME280;55437;55.046;38.838;2022-09-09T12:05:15;100945.13;;;14.85;36.58
68456;BME280;55437;55.046;38.838;2022-09-09T12:07:58;100945.47;;;15.00;36.13
68456;BME280;55437;55.046;38.838;2022-09-09T12:10:52;100940.78;;;15.11;36.07
68456;BME280;55437;55.046;38.838;2022-09-09T12:13:21;100947.34;;;15.22;36.24
68456;BME280;55437;55.046;38.838;2022-09-09T12:15:50;100940.16;;;15.05;36.13
68456;BME280;55437;55.046;38.838;2022-09-09T12:18:24;100953.81;;;14.82;36.46
68456;BME280;55437;55.046;38.838;2022-09-09T12:21:07;100959.00;;;14.54;36.84
68456;BME280;55437;55.046;38.838;2022-09-09T12:23:55;100956.19;;;14.32;36.93
68456;BME280;55437;55.046;38.838;2022-09-09T12:26:35;100953.91;;;14.22;37.22
68456;BME280;55437;55.046;38.838;2022-09-09T12:34:18;100953.94;;;14.20;38.05
68456;BME280;55437;55.046;38.838;2022-09-09T12:36:53;100948.81;;;14.19;38.20
68456;BME280;55437;55.046;38.838;2022-09-09T12:39:34;100949.63;;;14.21;38.19
68456;BME280;55437;55.046;38.838;2022-09-09T12:42:02;100950.19;;;14.30;38.07
68456;BME280;55437;55.046;38.838;2022-09-09T12:44:29;100950.03;;;14.36;38.19
68456;BME280;55437;55.046;38.838;2022-09-09T12:46:59;100950.94;;;14.35;38.19
68456;BME280;55437;55.046;38.838;2022-09-09T12:49:35;100952.50;;;14.41;37.80
68456;BME280;55437;55.046;38.838;2022-09-09T12:52:08;100950.81;;;14.38;37.88
68456;BME280;55437;55.046;38.838;2022-09-09T12:54:44;100947.25;;;14.44;37.89
68456;BME280;55437;55.046;38.838;2022-09-09T12:57:12;100940.84;;;14.56;37.86
68456;BME280;55437;55.046;38.838;2022-09-09T12:59:41;100938.19;;;14.59;37.79
68456;BME280;55437;55.046;38.838;2022-09-09T13:02:26;100934.56;;;14.64;37.61
68456;BME280;55437;55.046;38.838;2022-09-09T13:04:53;100933.03;;;14.59;37.32
68456;BME280;55437;55.046;38.838;2022-09-09T13:07:20;100941.66;;;14.58;37.74
68456;BME280;55437;55.046;38.838;2022-09-09T13:09:48;100939.63;;;14.39;37.70
68456;BME280;55437;55.046;38.838;2022-09-09T13:12:22;100941.00;;;14.22;37.62
68456;BME280;55437;55.046;38.838;2022-09-09T13:14:53;100953.63;;;14.01;38.08
68456;BME280;55437;55.046;38.838;2022-09-09T13:17:25;100939.41;;;13.87;38.49
68456;BME280;55437;55.046;38.838;2022-09-09T13:19:52;100939.81;;;13.73;38.94
68456;BME280;55437;55.046;38.838;2022-09-09T13:22:38;100948.06;;;13.53;39.18
68456;BME280;55437;55.046;38.838;2022-09-09T13:25:19;100942.50;;;13.36;39.47
68456;BME280;55437;55.046;38.838;2022-09-09T13:27:58;100947.91;;;13.27;40.08
68456;BME280;55437;55.046;38.838;2022-09-09T13:35:31;100941.69;;;12.98;40.33
68456;BME280;55437;55.046;38.838;2022-09-09T13:37:58;100941.69;;;12.98;40.52
68456;BME280;55437;55.046;38.838;2022-09-09T13:40:25;100940.53;;;13.10;41.65
68456;BME280;55437;55.046;38.838;2022-09-09T13:42:54;100941.31;;;13.15;41.10
68456;BME280;55437;55.046;38.838;2022-09-09T13:45:21;100944.63;;;13.20;41.50
68456;BME280;55437;55.046;38.838;2022-09-09T13:47:47;100937.47;;;13.30;41.74
68456;BME280;55437;55.046;38.838;2022-09-09T13:50:28;100940.44;;;13.49;42.37
68456;BME280;55437;55.046;38.838;2022-09-09T13:52:56;100939.31;;;13.59;41.67
68456;BME280;55437;55.046;38.838;2022-09-09T13:55:25;100944.28;;;13.65;41.09
68456;BME280;55437;55.046;38.838;2022-09-09T13:58:02;100940.47;;;13.80;40.32
68456;BME280;55437;55.046;38.838;2022-09-09T14:00:31;100936.00;;;13.86;39.35
68456;BME280;55437;55.046;38.838;2022-09-09T14:02:58;100925.44;;;13.94;39.43
68456;BME280;55437;55.046;38.838;2022-09-09T14:05:28;100940.00;;;13.96;38.95
68456;BME280;55437;55.046;38.838;2022-09-09T14:07:55;100936.00;;;13.86;38.97
68456;BME280;55437;55.046;38.838;2022-09-09T14:10:21;100938.06;;;13.74;39.54
68456;BME280;55437;55.046;38.838;2022-09-09T14:12:47;100939.56;;;13.50;39.63
68456;BME280;55437;55.046;38.838;2022-09-09T14:15:13;100940.81;;;13.35;40.01
68456;BME280;55437;55.046;38.838;2022-09-09T14:17:39;100937.72;;;13.21;40.56
68456;BME280;55437;55.046;38.838;2022-09-09T14:20:06;100943.91;;;13.14;40.67
68456;BME280;55437;55.046;38.838;2022-09-09T14:22:35;100941.53;;;13.05;40.51
68456;BME280;55437;55.046;38.838;2022-09-09T14:25:01;100945.94;;;13.01;40.74
68456;BME280;55437;55.046;38.838;2022-09-09T14:27:28;100947.72;;;12.97;40.74
68456;BME280;55437;55.046;38.838;2022-09-09T14:29:55;100951.31;;;12.92;41.16
68456;BME280;55437;55.046;38.838;2022-09-09T14:32:21;100953.19;;;12.85;40.95
68456;BME280;55437;55.046;38.838;2022-09-09T14:34:47;100957.50;;;12.83;41.43
68456;BME280;55437;55.046;38.838;2022-09-09T14:37:16;100956.81;;;12.77;41.87
68456;BME280;55437;55.046;38.838;2022-09-09T14:39:42;100956.84;;;12.75;41.70
68456;BME280;55437;55.046;38.838;2022-09-09T14:42:10;100957.81;;;12.70;41.69
68456;BME280;55437;55.046;38.838;2022-09-09T14:44:37;100957.16;;;12.61;41.92
68456;BME280;55437;55.046;38.838;2022-09-09T14:47:07;100956.38;;;12.58;42.04
68456;BME280;55437;55.046;38.838;2022-09-09T14:49:36;100950.50;;;12.53;41.64
68456;BME280;55437;55.046;38.838;2022-09-09T14:52:06;100954.84;;;12.49;42.00
68456;BME280;55437;55.046;38.838;2022-09-09T14:54:32;100950.66;;;12.45;42.19
68456;BME280;55437;55.046;38.838;2022-09-09T14:56:58;100949.00;;;12.43;42.71
68456;BME280;55437;55.046;38.838;2022-09-09T14:59:24;100952.53;;;12.39;42.82
68456;BME280;55437;55.046;38.838;2022-09-09T15:01:49;100953.41;;;12.38;42.91
68456;BME280;55437;55.046;38.838;2022-09-09T15:04:15;100954.31;;;12.35;42.95
68456;BME280;55437;55.046;38.838;2022-09-09T15:06:42;100962.91;;;12.34;42.83